Time;durP1;ratioP1;P1;durP2;ratioP2;P2;SDS_P1;SDS_P2;PMS_P1;PMS_P2;Temp;Humidity;BMP_temperature;BMP_pressure;BME280_temperature;BME280_humidity;BME280_pressure;Samples;Min_cycle;Max_cycle;Signal;HPM_P1;HPM_P2
2022/08/24 00:00:55;;;;;;;13.73;8.20;;;18.00;30.40;;;;;;5002577;28;20476;-61
2022/08/24 00:03:22;;;;;;;8.40;7.50;;;17.90;30.70;;;;;;5003682;28;20829;-61
2022/08/24 00:05:50;;;;;;;10.57;7.60;;;17.90;31.20;;;;;;4994592;28;20995;-60
2022/08/24 00:08:18;;;;;;;9.73;7.53;;;17.80;31.50;;;;;;5004855;28;20458;-60
2022/08/24 00:10:45;;;;;;;11.10;7.87;;;17.70;31.70;;;;;;4997906;28;20476;-61
2022/08/24 00:13:13;;;;;;;11.17;8.73;;;17.60;31.80;;;;;;5002551;28;20959;-60
2022/08/24 00:15:40;;;;;;;8.87;7.90;;;17.60;31.70;;;;;;4994132;28;21022;-60
2022/08/24 00:18:08;;;;;;;12.63;8.97;;;17.60;31.80;;;;;;5002944;28;20460;-61
2022/08/24 00:20:35;;;;;;;8.90;8.00;;;17.50;31.80;;;;;;5005521;28;20475;-60
2022/08/24 00:23:02;;;;;;;12.27;8.43;;;17.50;31.90;;;;;;5000190;28;20509;-61
2022/08/24 00:25:30;;;;;;;11.90;9.70;;;17.50;31.90;;;;;;4995974;28;20480;-61
2022/08/24 00:27:57;;;;;;;10.23;9.10;;;17.50;32.40;;;;;;5002753;28;20506;-60
2022/08/24 00:30:24;;;;;;;9.83;8.83;;;17.50;32.30;;;;;;5000268;28;20456;-60
2022/08/24 00:32:53;;;;;;;10.70;9.03;;;17.50;32.20;;;;;;4997946;28;20584;-61
2022/08/24 00:35:21;;;;;;;10.87;9.73;;;17.40;32.40;;;;;;5003661;28;20476;-60
2022/08/24 00:37:50;;;;;;;10.17;8.73;;;17.40;32.60;;;;;;5002948;28;20451;-61
2022/08/24 00:40:20;;;;;;;11.87;8.60;;;17.40;32.40;;;;;;5003816;28;20456;-61
2022/08/24 00:42:48;;;;;;;10.50;9.10;;;17.40;32.30;;;;;;5002377;28;21030;-61
2022/08/24 00:45:16;;;;;;;9.23;8.27;;;17.40;32.40;;;;;;4999119;28;20483;-61
2022/08/24 00:47:47;;;;;;;13.23;9.60;;;17.30;32.60;;;;;;5001977;28;20511;-60
2022/08/24 00:50:19;;;;;;;10.80;8.10;;;17.30;33.20;;;;;;5002374;28;20464;-61
2022/08/24 00:52:51;;;;;;;9.70;8.10;;;17.30;32.50;;;;;;5001944;28;20460;-60
2022/08/24 00:55:23;;;;;;;9.57;8.00;;;17.30;32.90;;;;;;5003417;28;20544;-61
2022/08/24 00:57:55;;;;;;;10.27;8.67;;;17.20;32.90;;;;;;5000860;28;20458;-60
2022/08/24 01:00:26;;;;;;;11.23;9.00;;;17.30;32.70;;;;;;5002566;28;20452;-60
2022/08/24 01:02:57;;;;;;;10.97;8.30;;;17.30;32.40;;;;;;5001102;28;20459;-61
2022/08/24 01:05:24;;;;;;;9.47;8.47;;;17.20;32.50;;;;;;5000376;28;21069;-60
2022/08/24 01:07:52;;;;;;;11.00;9.20;;;17.20;32.60;;;;;;5002456;28;20451;-60
2022/08/24 01:10:23;;;;;;;10.97;8.87;;;17.20;32.60;;;;;;5006624;28;20456;-61
2022/08/24 01:12:55;;;;;;;11.40;9.33;;;17.10;33.00;;;;;;4999653;28;20483;-61
2022/08/24 01:15:22;;;;;;;11.73;9.30;;;17.00;33.10;;;;;;5003109;28;20480;-60
2022/08/24 01:20:34;;;;;;;11.07;8.97;;;16.90;33.80;;;;;;5001761;28;20451;-61
2022/08/24 01:23:10;;;;;;;9.90;8.90;;;16.80;33.90;;;;;;5007340;28;20452;-61
2022/08/24 01:25:41;;;;;;;12.63;11.17;;;16.80;34.20;;;;;;5005301;28;20475;-62
2022/08/24 01:28:14;;;;;;;10.07;8.97;;;16.70;34.40;;;;;;5001888;28;20456;-61
2022/08/24 01:30:41;;;;;;;11.00;9.90;;;16.70;34.30;;;;;;5003185;28;20460;-61
2022/08/24 01:33:10;;;;;;;10.83;9.20;;;16.60;34.50;;;;;;5002150;28;21079;-61
2022/08/24 01:35:39;;;;;;;11.93;9.47;;;16.70;34.30;;;;;;5005654;28;20506;-60
2022/08/24 01:38:10;;;;;;;10.70;9.23;;;16.70;34.30;;;;;;5005358;28;20838;-60
2022/08/24 01:40:43;;;;;;;12.40;10.10;;;16.60;34.60;;;;;;5007142;28;20463;-60
2022/08/24 01:43:12;;;;;;;11.93;9.40;;;16.60;34.50;;;;;;5008106;28;20459;-61
2022/08/24 01:45:40;;;;;;;12.20;10.10;;;16.50;35.00;;;;;;5000845;28;20480;-60
2022/08/24 01:48:07;;;;;;;10.40;9.10;;;16.40;35.10;;;;;;5005129;28;20979;-61
2022/08/24 01:50:33;;;;;;;12.60;9.73;;;16.40;34.90;;;;;;5007109;28;20467;-61
2022/08/24 01:53:02;;;;;;;11.50;9.80;;;16.40;35.00;;;;;;5007396;28;20483;-61
2022/08/24 01:55:29;;;;;;;11.10;9.73;;;16.30;35.20;;;;;;5001817;28;20479;-60
2022/08/24 01:57:59;;;;;;;11.80;10.60;;;16.30;35.20;;;;;;5004008;28;20463;-61
2022/08/24 02:00:27;;;;;;;12.80;9.73;;;16.30;35.20;;;;;;5005903;28;20507;-61
2022/08/24 02:02:55;;;;;;;12.13;9.77;;;16.30;35.00;;;;;;4999102;28;21040;-60
2022/08/24 02:05:23;;;;;;;12.00;10.50;;;16.30;34.90;;;;;;5008478;28;20490;-60
2022/08/24 02:07:50;;;;;;;11.70;10.17;;;16.30;35.10;;;;;;5006464;28;20488;-60
2022/08/24 02:10:17;;;;;;;12.07;10.33;;;16.30;35.00;;;;;;5006506;28;20466;-60
2022/08/24 02:12:56;;;;;;;12.83;10.97;;;16.30;35.30;;;;;;4997794;28;20487;-61
2022/08/24 02:15:26;;;;;;;12.87;11.57;;;16.30;35.50;;;;;;5002484;28;20476;-60
2022/08/24 02:17:52;;;;;;;15.80;10.90;;;16.30;35.60;;;;;;5007500;28;20456;-61
2022/08/24 02:20:20;;;;;;;12.27;11.00;;;16.30;35.40;;;;;;5005215;28;20467;-61
2022/08/24 02:22:48;;;;;;;10.80;9.50;;;16.20;35.40;;;;;;5004193;28;20456;-60
2022/08/24 02:25:15;;;;;;;12.10;10.07;;;16.20;35.40;;;;;;5009423;28;20485;-60
2022/08/24 02:27:42;;;;;;;10.20;9.07;;;16.20;35.00;;;;;;5005341;28;20869;-60
2022/08/24 02:30:10;;;;;;;10.80;9.70;;;16.30;35.40;;;;;;5001552;28;20459;-61
2022/08/24 02:32:38;;;;;;;12.23;9.77;;;16.30;34.70;;;;;;5105531;28;20482;-60
2022/08/24 02:35:05;;;;;;;12.30;11.00;;;16.40;34.50;;;;;;5107724;28;20479;-60
2022/08/24 02:37:32;;;;;;;12.00;10.80;;;16.30;34.50;;;;;;5109425;28;20458;-60
2022/08/24 02:40:00;;;;;;;15.33;11.13;;;16.40;34.40;;;;;;5103621;28;20455;-60
2022/08/24 02:42:27;;;;;;;9.40;8.37;;;16.40;34.20;;;;;;5108115;28;20447;-60
2022/08/24 02:44:54;;;;;;;12.30;10.33;;;16.40;34.40;;;;;;5095695;28;20479;-60
2022/08/24 02:47:21;;;;;;;10.73;9.63;;;16.30;34.30;;;;;;5101734;28;20508;-60
2022/08/24 02:49:49;;;;;;;11.20;10.00;;;16.30;34.10;;;;;;5101240;28;20458;-60
2022/08/24 02:52:16;;;;;;;11.87;10.67;;;16.40;34.10;;;;;;5108516;28;20475;-60
2022/08/24 02:54:42;;;;;;;17.33;12.30;;;16.40;34.00;;;;;;5104467;28;20471;-61
2022/08/24 02:57:09;;;;;;;13.27;11.83;;;16.40;34.30;;;;;;5106379;28;20455;-60
2022/08/24 02:59:36;;;;;;;14.50;12.90;;;16.30;35.20;;;;;;5104895;28;20475;-61
2022/08/24 03:02:03;;;;;;;11.40;9.80;;;16.40;35.20;;;;;;5024475;28;20468;-60
2022/08/24 03:04:30;;;;;;;12.53;10.20;;;16.40;35.00;;;;;;5003381;28;20489;-60
2022/08/24 03:06:58;;;;;;;14.57;10.77;;;16.30;34.90;;;;;;5003184;28;20460;-60
2022/08/24 03:09:25;;;;;;;14.30;12.40;;;16.40;34.60;;;;;;5004648;28;20460;-61
2022/08/24 03:11:52;;;;;;;14.13;10.33;;;16.40;34.60;;;;;;5002200;28;20488;-60
2022/08/24 03:14:19;;;;;;;12.33;11.00;;;16.40;35.10;;;;;;5003225;28;20493;-61
2022/08/24 03:16:46;;;;;;;11.73;9.73;;;16.50;35.10;;;;;;4999177;28;20456;-61
2022/08/24 03:19:14;;;;;;;11.43;10.00;;;16.40;34.50;;;;;;4999311;28;20841;-61
2022/08/24 03:21:41;;;;;;;13.27;11.60;;;16.30;34.30;;;;;;4991059;28;20476;-61
2022/08/24 03:24:10;;;;;;;13.13;11.73;;;16.30;34.10;;;;;;5003241;28;21031;-61
2022/08/24 03:26:37;;;;;;;13.60;12.20;;;16.30;34.30;;;;;;5001431;28;20959;-61
2022/08/24 03:29:04;;;;;;;14.83;10.87;;;16.30;34.30;;;;;;5001431;28;20571;-61
2022/08/24 03:31:31;;;;;;;12.77;11.47;;;16.20;34.50;;;;;;5002417;28;20551;-61
2022/08/24 03:33:58;;;;;;;15.20;12.07;;;16.20;34.80;;;;;;4997965;28;20715;-61
2022/08/24 03:36:24;;;;;;;12.23;10.93;;;16.10;35.10;;;;;;5002585;28;20460;-62
2022/08/24 03:38:51;;;;;;;17.63;11.10;;;16.10;35.00;;;;;;5005470;28;20947;-61
2022/08/24 03:41:19;;;;;;;14.00;10.63;;;16.00;34.90;;;;;;4993011;28;20463;-60
2022/08/24 03:43:47;;;;;;;10.60;9.50;;;15.90;34.80;;;;;;4992952;28;20482;-60
2022/08/24 03:46:16;;;;;;;11.30;10.20;;;15.90;35.00;;;;;;4999974;28;20539;-60
2022/08/24 03:48:44;;;;;;;11.77;10.53;;;15.80;35.10;;;;;;4998633;28;20467;-60
2022/08/24 03:51:12;;;;;;;14.67;11.00;;;15.70;35.20;;;;;;4995589;28;20602;-60
2022/08/24 03:53:41;;;;;;;14.40;11.00;;;15.70;35.70;;;;;;5004845;28;20467;-60
2022/08/24 03:56:08;;;;;;;13.47;12.07;;;15.60;36.00;;;;;;5001513;28;20852;-60
2022/08/24 03:58:40;;;;;;;14.63;12.77;;;15.50;36.10;;;;;;4996748;28;20799;-60
2022/08/24 04:01:07;;;;;;;13.53;11.10;;;15.40;36.30;;;;;;4992098;28;20615;-61
2022/08/24 04:03:36;;;;;;;14.20;12.70;;;15.40;36.20;;;;;;5000171;28;20517;-62
2022/08/24 04:06:04;;;;;;;15.00;12.33;;;15.50;37.00;;;;;;5014028;22;20499;-61
2022/08/24 04:08:31;;;;;;;14.67;11.87;;;15.50;36.60;;;;;;4984599;28;20981;-61
2022/08/24 04:10:58;;;;;;;17.40;12.80;;;15.50;36.50;;;;;;4986002;28;20453;-61
2022/08/24 04:13:25;;;;;;;15.00;11.33;;;15.50;36.40;;;;;;4985107;28;20460;-61
2022/08/24 04:15:53;;;;;;;13.37;11.97;;;15.50;36.50;;;;;;4998728;28;20456;-60
2022/08/24 04:18:20;;;;;;;17.13;13.03;;;15.50;36.70;;;;;;5026243;28;20460;-61
2022/08/24 04:20:47;;;;;;;13.70;11.97;;;15.50;36.90;;;;;;4985771;28;20453;-61
2022/08/24 04:23:14;;;;;;;14.63;13.20;;;15.40;37.10;;;;;;4983645;28;20484;-63
2022/08/24 04:25:43;;;;;;;15.93;14.10;;;15.40;37.00;;;;;;5018656;28;20452;-61
2022/08/24 04:28:48;;;;;;;14.10;12.13;;;15.40;37.20;;;;;;5045820;28;20456;-61
2022/08/24 04:31:17;;;;;;;16.53;13.33;;;15.40;37.60;;;;;;5054605;28;20468;-62
2022/08/24 04:33:45;;;;;;;16.37;13.20;;;15.30;37.50;;;;;;4979245;28;20461;-62
2022/08/24 04:36:13;;;;;;;14.33;12.83;;;15.30;37.60;;;;;;5011039;28;20484;-61
2022/08/24 04:38:39;;;;;;;16.50;13.07;;;15.40;37.90;;;;;;5041759;28;20460;-63
2022/08/24 04:41:08;;;;;;;14.70;12.70;;;15.30;38.20;;;;;;5034826;28;20565;-61
2022/08/24 04:43:36;;;;;;;17.20;13.90;;;15.30;38.20;;;;;;5023956;28;20500;-62
2022/08/24 04:46:05;;;;;;;14.80;13.10;;;15.40;38.00;;;;;;5028572;28;20475;-62
2022/08/24 04:48:34;;;;;;;14.67;12.53;;;15.50;37.80;;;;;;5000481;28;20463;-61
2022/08/24 04:51:02;;;;;;;16.50;13.30;;;15.40;38.30;;;;;;5045894;28;20456;-61
2022/08/24 04:53:30;;;;;;;15.23;13.27;;;15.40;38.30;;;;;;5037428;28;20453;-61
2022/08/24 04:55:57;;;;;;;14.33;12.70;;;15.50;38.10;;;;;;5044588;28;20459;-61
2022/08/24 04:58:24;;;;;;;14.30;12.90;;;15.60;37.70;;;;;;5042328;28;20460;-63
2022/08/24 05:00:51;;;;;;;15.33;12.87;;;15.70;37.50;;;;;;4980364;28;20548;-61
2022/08/24 05:03:18;;;;;;;13.23;11.50;;;15.80;37.20;;;;;;4986245;28;20482;-62
2022/08/24 05:05:48;;;;;;;12.30;10.73;;;15.80;37.40;;;;;;5008762;28;20952;-61
2022/08/24 05:08:16;;;;;;;11.77;10.30;;;15.90;37.20;;;;;;5043644;28;20541;-63
2022/08/24 05:10:45;;;;;;;13.70;11.20;;;16.00;37.30;;;;;;5044089;28;20972;-62
2022/08/24 05:13:12;;;;;;;13.33;10.10;;;16.40;37.10;;;;;;5017480;28;20549;-61
2022/08/24 05:15:41;;;;;;;11.53;9.20;;;16.80;36.30;;;;;;5003637;28;20503;-62
2022/08/24 05:18:08;;;;;;;10.47;8.33;;;17.20;36.00;;;;;;5034065;28;20476;-61
2022/08/24 05:20:35;;;;;;;11.37;9.57;;;17.60;35.30;;;;;;5042438;28;20457;-62
2022/08/24 05:23:03;;;;;;;11.67;10.47;;;17.90;34.30;;;;;;5014342;28;20480;-63
2022/08/24 05:25:30;;;;;;;10.20;8.63;;;18.20;33.20;;;;;;4996739;28;20452;-62
2022/08/24 05:27:57;;;;;;;13.60;9.43;;;18.50;31.80;;;;;;5067154;28;20535;-63
2022/08/24 05:30:24;;;;;;;13.20;9.90;;;18.80;30.00;;;;;;5065644;28;20486;-62
2022/08/24 05:32:51;;;;;;;13.50;10.93;;;19.30;28.70;;;;;;5037076;28;20462;-62
2022/08/24 05:35:18;;;;;;;10.20;9.20;;;19.70;27.50;;;;;;4984103;28;20459;-62
2022/08/24 05:37:44;;;;;;;13.40;8.57;;;20.10;26.20;;;;;;5029579;28;21164;-61
2022/08/24 05:40:16;;;;;;;12.93;9.13;;;20.50;25.00;;;;;;5040361;28;20459;-61
2022/08/24 05:42:43;;;;;;;11.50;9.47;;;21.20;23.20;;;;;;5056920;28;20476;-62
2022/08/24 05:45:11;;;;;;;10.43;8.87;;;22.10;20.40;;;;;;5040064;28;20461;-61
2022/08/24 05:47:38;;;;;;;12.17;9.13;;;23.20;18.30;;;;;;4989821;28;20487;-62
2022/08/24 05:50:06;;;;;;;11.53;8.77;;;24.40;15.60;;;;;;5027507;28;20457;-62
2022/08/24 05:52:34;;;;;;;15.90;8.00;;;25.60;12.60;;;;;;5038774;28;20456;-61
2022/08/24 05:55:01;;;;;;;9.10;8.20;;;26.80;10.40;;;;;;5038837;28;20511;-61
2022/08/24 05:57:34;;;;;;;9.37;8.20;;;27.80;7.90;;;;;;5060856;28;20468;-62
2022/08/24 06:00:01;;;;;;;9.17;8.00;;;28.80;5.90;;;;;;5025632;28;20477;-61
2022/08/24 06:02:28;;;;;;;8.73;7.00;;;29.70;4.10;;;;;;5045405;28;20567;-62
2022/08/24 06:04:55;;;;;;;8.60;7.50;;;30.70;2.70;;;;;;5033594;28;20513;-63
2022/08/24 06:07:22;;;;;;;10.80;6.20;;;31.50;1.00;;;;;;5033307;28;20568;-62
2022/08/24 06:09:49;;;;;;;9.33;6.00;;;32.50;1.00;;;;;;5052812;28;20543;-61
2022/08/24 06:12:16;;;;;;;7.10;6.30;;;33.60;1.00;;;;;;5026553;28;20457;-62
2022/08/24 06:14:47;;;;;;;6.93;5.67;;;34.80;1.00;;;;;;4983655;28;20467;-63
2022/08/24 06:17:14;;;;;;;6.70;5.90;;;35.80;1.00;;;;;;4991825;28;21073;-62
2022/08/24 06:19:42;;;;;;;8.00;6.00;;;36.70;1.00;;;;;;4993470;28;20472;-63
2022/08/24 06:22:09;;;;;;;6.73;5.60;;;37.40;1.00;;;;;;4996683;28;20487;-62
2022/08/24 06:27:22;;;;;;;6.23;5.20;;;39.10;1.00;;;;;;5023938;28;20491;-62
2022/08/24 06:29:51;;;;;;;6.73;5.03;;;40.10;1.00;;;;;;5029246;28;20526;-62
2022/08/24 06:32:18;;;;;;;6.87;5.20;;;40.70;1.00;;;;;;4976897;28;20509;-62
2022/08/24 06:34:45;;;;;;;7.87;5.87;;;41.30;1.00;;;;;;5027616;28;20467;-62
2022/08/24 06:37:12;;;;;;;10.97;5.73;;;41.70;1.00;;;;;;5025025;28;20477;-62
2022/08/24 06:39:39;;;;;;;7.27;5.70;;;42.30;1.00;;;;;;5000001;28;20469;-62
2022/08/24 06:42:06;;;;;;;7.10;4.93;;;42.70;1.00;;;;;;5030305;28;20472;-63
2022/08/24 06:44:33;;;;;;;6.30;5.03;;;43.30;1.00;;;;;;5028911;28;20485;-63
2022/08/24 06:47:01;;;;;;;7.53;5.73;;;43.80;1.00;;;;;;5011068;28;20480;-63
2022/08/24 06:49:28;;;;;;;6.47;4.80;;;44.40;1.00;;;;;;4986760;28;20464;-64
2022/08/24 06:51:55;;;;;;;7.90;4.77;;;44.90;1.00;;;;;;5026617;28;20465;-61
2022/08/24 06:54:22;;;;;;;8.13;5.23;;;45.20;1.00;;;;;;5015834;28;20896;-62
2022/08/24 06:56:49;;;;;;;7.07;4.80;;;45.30;1.00;;;;;;5046835;28;20480;-62
2022/08/24 06:59:16;;;;;;;7.10;5.20;;;45.60;1.00;;;;;;5041604;28;20453;-62
2022/08/24 07:01:43;;;;;;;9.07;4.57;;;46.10;1.00;;;;;;5004477;28;20480;-62
2022/08/24 07:04:11;;;;;;;8.10;4.57;;;46.50;1.00;;;;;;5006886;28;20889;-62
2022/08/24 07:06:38;;;;;;;6.97;4.50;;;46.80;1.00;;;;;;5008305;28;20531;-62
2022/08/24 07:09:05;;;;;;;7.30;4.83;;;47.20;1.00;;;;;;4988192;28;20578;-62
2022/08/24 07:11:33;;;;;;;6.63;4.77;;;47.40;1.00;;;;;;4976980;28;20468;-63
2022/08/24 07:14:00;;;;;;;7.00;4.63;;;47.70;1.00;;;;;;5008908;28;20469;-62
2022/08/24 07:16:27;;;;;;;6.40;5.20;;;48.20;1.00;;;;;;5005144;28;20830;-62
2022/08/24 07:18:54;;;;;;;6.70;4.70;;;48.70;1.00;;;;;;5028211;28;20463;-63
2022/08/24 07:21:22;;;;;;;6.10;4.97;;;49.10;1.00;;;;;;5007898;28;20810;-64
2022/08/24 07:23:50;;;;;;;5.73;4.80;;;49.40;1.00;;;;;;5059194;28;20487;-62
2022/08/24 07:28:49;;;;;;;5.20;4.40;;;50.10;1.00;;;;;;4984781;22;20492;-63
2022/08/24 07:31:16;;;;;;;5.23;4.67;;;50.30;1.00;;;;;;4975473;28;20473;-63
2022/08/24 07:33:43;;;;;;;9.03;4.93;;;50.60;1.00;;;;;;4977702;28;20461;-63
2022/08/24 07:36:10;;;;;;;6.93;4.87;;;50.90;1.00;;;;;;4972119;28;20466;-62
2022/08/24 07:38:39;;;;;;;5.40;4.20;;;51.20;1.00;;;;;;4973529;28;21060;-63
2022/08/24 07:41:06;;;;;;;8.13;4.70;;;51.30;1.00;;;;;;4980193;28;20799;-62
2022/08/24 07:43:33;;;;;;;7.70;4.50;;;51.50;1.00;;;;;;4973115;28;21185;-63
2022/08/24 07:46:00;;;;;;;5.40;4.20;;;51.60;1.00;;;;;;4964047;28;20977;-62
2022/08/24 07:48:27;;;;;;;6.80;5.20;;;51.80;1.00;;;;;;4959586;28;20624;-62
2022/08/24 07:50:54;;;;;;;5.87;4.63;;;51.80;1.00;;;;;;4978836;28;20452;-63
2022/08/24 07:53:21;;;;;;;8.90;4.67;;;52.20;1.00;;;;;;4978364;28;20456;-63
2022/08/24 07:55:54;;;;;;;8.23;4.90;;;52.50;1.00;;;;;;4972952;28;20462;-62
2022/08/24 07:58:21;;;;;;;10.87;5.40;;;52.80;1.00;;;;;;4964192;28;20481;-63
2022/08/24 08:00:49;;;;;;;6.73;4.57;;;53.10;1.00;;;;;;4967903;28;20483;-63
2022/08/24 08:03:15;;;;;;;6.00;5.10;;;53.30;1.00;;;;;;4960913;28;20489;-63
2022/08/24 08:05:42;;;;;;;6.93;5.77;;;53.50;1.00;;;;;;4971704;28;20460;-64
2022/08/24 08:08:10;;;;;;;6.60;4.40;;;53.60;1.00;;;;;;4984741;28;20476;-64
2022/08/24 08:10:39;;;;;;;7.97;5.33;;;53.40;1.00;;;;;;5014717;28;20489;-64
2022/08/24 08:13:07;;;;;;;6.70;5.10;;;53.60;1.00;;;;;;4985490;28;20589;-62
2022/08/24 08:15:34;;;;;;;5.60;5.00;;;53.80;1.00;;;;;;4996288;28;20456;-63
2022/08/24 08:18:01;;;;;;;5.50;4.63;;;54.10;1.00;;;;;;4973446;28;20473;-63
2022/08/24 08:20:28;;;;;;;6.23;5.40;;;54.30;1.00;;;;;;4969502;28;20564;-63
2022/08/24 08:25:40;;;;;;;5.77;4.80;;;54.30;1.00;;;;;;4968078;28;21093;-63
2022/08/24 08:28:08;;;;;;;9.00;5.77;;;54.50;1.00;;;;;;4971839;28;20492;-63
2022/08/24 08:30:35;;;;;;;8.23;5.10;;;54.60;1.00;;;;;;4980654;28;20471;-63
2022/08/24 08:33:02;;;;;;;6.60;4.50;;;54.70;1.00;;;;;;4963715;28;20465;-64
2022/08/24 08:35:29;;;;;;;5.63;4.90;;;54.80;1.00;;;;;;4972584;28;20465;-63
2022/08/24 08:37:56;;;;;;;5.80;5.23;;;54.80;1.00;;;;;;4972798;28;20480;-64
2022/08/24 08:40:34;;;;;;;6.80;5.13;;;54.30;1.00;;;;;;4967942;28;20465;-64
2022/08/24 08:43:06;;;;;;;7.97;5.73;;;54.00;1.00;;;;;;5016087;28;20456;-64
2022/08/24 08:45:58;;;;;;;6.10;4.57;;;54.00;1.00;;;;;;4969938;28;20496;-63
2022/08/24 08:49:02;;;;;;;6.77;4.50;;;54.20;1.00;;;;;;5005886;28;20860;-63
2022/08/24 08:51:50;;;;;;;8.30;5.27;;;54.50;1.00;;;;;;4974864;28;20456;-63
2022/08/24 08:54:43;;;;;;;6.23;4.70;;;54.80;1.00;;;;;;4973146;28;20477;-62
2022/08/24 08:57:26;;;;;;;8.93;5.30;;;54.40;1.00;;;;;;4999319;28;20487;-62
2022/08/24 09:00:09;;;;;;;6.03;4.40;;;54.60;1.00;;;;;;5011489;28;20457;-63
2022/08/24 09:03:10;;;;;;;5.90;5.30;;;54.80;1.00;;;;;;5085982;28;20482;-63
2022/08/24 09:05:56;;;;;;;9.87;5.27;;;54.90;1.00;;;;;;5083269;28;20462;-63
2022/08/24 09:08:33;;;;;;;5.60;4.13;;;54.70;1.00;;;;;;5087641;28;20471;-64
2022/08/24 09:11:07;;;;;;;7.60;5.13;;;55.20;1.00;;;;;;5083504;28;20514;-63
2022/08/24 09:13:58;;;;;;;5.40;4.43;;;55.30;1.00;;;;;;5082682;28;20473;-62
2022/08/24 09:16:48;;;;;;;5.50;4.83;;;55.20;1.00;;;;;;5085620;28;20642;-63
2022/08/24 09:19:30;;;;;;;6.30;4.43;;;55.30;1.00;;;;;;5086315;28;20459;-64
2022/08/24 09:22:11;;;;;;;6.13;4.60;;;55.40;1.00;;;;;;5082361;28;20460;-63
2022/08/24 09:25:07;;;;;;;4.93;4.33;;;55.60;1.00;;;;;;5084114;28;20463;-64
2022/08/24 09:27:55;;;;;;;5.60;4.90;;;55.60;1.00;;;;;;5067780;28;20484;-64
2022/08/24 09:30:24;;;;;;;5.43;4.03;;;55.30;1.00;;;;;;5087703;28;20517;-63
2022/08/24 09:33:07;;;;;;;6.53;4.23;;;55.20;1.00;;;;;;5089465;28;20460;-64
2022/08/24 09:35:46;;;;;;;5.47;4.10;;;54.00;1.00;;;;;;5085763;28;21204;-63
2022/08/24 09:38:23;;;;;;;4.90;3.80;;;53.50;1.00;;;;;;5090616;28;20483;-63
2022/08/24 09:41:20;;;;;;;5.73;3.90;;;53.80;1.00;;;;;;5086770;28;20459;-63
2022/08/24 09:44:19;;;;;;;4.87;4.13;;;54.50;1.00;;;;;;5079627;28;20458;-62
2022/08/24 09:47:22;;;;;;;6.33;3.93;;;54.90;1.00;;;;;;5082583;28;21188;-63
2022/08/24 09:50:09;;;;;;;4.97;3.70;;;55.00;1.00;;;;;;5082556;28;20516;-64
2022/08/24 09:52:57;;;;;;;5.90;4.10;;;55.70;1.00;;;;;;5045207;28;20487;-63
2022/08/24 09:55:59;;;;;;;6.87;3.60;;;56.10;1.00;;;;;;5087761;28;20475;-63
2022/08/24 09:58:37;;;;;;;4.60;3.40;;;56.10;1.00;;;;;;5086443;28;20475;-63
2022/08/24 10:01:10;;;;;;;4.47;2.60;;;55.90;1.00;;;;;;5090567;28;20463;-63
2022/08/24 10:03:53;;;;;;;6.93;3.10;;;55.40;1.00;;;;;;5081787;28;20487;-63
2022/08/24 10:06:34;;;;;;;5.03;3.50;;;54.40;1.00;;;;;;5093001;28;22104;-62
2022/08/24 10:09:26;;;;;;;6.20;3.60;;;54.10;1.00;;;;;;5103158;28;20560;-63
2022/08/24 10:12:03;;;;;;;6.60;3.50;;;54.40;1.00;;;;;;5095227;28;20456;-62
2022/08/24 10:14:44;;;;;;;7.00;3.80;;;53.90;1.00;;;;;;5082284;28;20479;-63
2022/08/24 10:17:20;;;;;;;5.00;3.87;;;53.80;1.00;;;;;;5088118;28;20471;-63
2022/08/24 10:20:01;;;;;;;5.23;3.53;;;53.90;1.00;;;;;;5086341;28;20464;-63
2022/08/24 10:22:45;;;;;;;4.13;2.63;;;53.90;1.00;;;;;;5089088;28;20475;-62
2022/08/24 10:25:29;;;;;;;5.07;3.70;;;53.40;1.00;;;;;;5084006;28;20952;-62
2022/08/24 10:28:07;;;;;;;4.53;3.10;;;53.10;1.00;;;;;;5085588;28;20698;-62
2022/08/24 10:30:57;;;;;;;6.90;3.57;;;52.40;1.00;;;;;;5089690;28;20459;-63
2022/08/24 10:33:27;;;;;;;4.43;2.90;;;52.60;1.00;;;;;;5086386;28;20467;-63
2022/08/24 10:36:17;;;;;;;4.53;2.50;;;51.80;1.00;;;;;;5087115;28;20834;-62
2022/08/24 10:45:17;;;;;;;3.80;1.90;;;50.70;1.00;;;;;;5023091;28;20483;-62
2022/08/24 10:48:04;;;;;;;4.57;2.97;;;50.10;1.00;;;;;;5023145;28;20691;-62
2022/08/24 10:50:43;;;;;;;5.23;2.70;;;49.00;1.00;;;;;;5068537;28;20448;-62
2022/08/24 10:53:27;;;;;;;10.40;2.87;;;47.30;1.00;;;;;;5088325;28;20521;-62
2022/08/24 10:56:10;;;;;;;3.70;1.90;;;45.30;1.00;;;;;;5076321;28;21041;-63
2022/08/24 10:58:43;;;;;;;4.10;2.47;;;43.50;1.00;;;;;;5088309;28;20798;-63
2022/08/24 11:01:23;;;;;;;4.90;2.10;;;41.80;1.00;;;;;;5091887;28;20460;-63
2022/08/24 11:03:56;;;;;;;4.77;2.93;;;40.40;1.00;;;;;;5091803;28;20839;-62
2022/08/24 11:06:26;;;;;;;5.53;2.60;;;39.00;1.00;;;;;;5092760;28;20487;-63
2022/08/24 11:08:57;;;;;;;4.63;2.63;;;38.00;1.00;;;;;;5092188;28;20513;-62
2022/08/24 11:11:27;;;;;;;4.57;2.80;;;37.00;1.00;;;;;;5092769;28;20834;-61
2022/08/24 11:13:59;;;;;;;6.07;2.90;;;36.20;1.00;;;;;;5089679;28;20836;-61
2022/08/24 11:16:31;;;;;;;4.73;3.40;;;35.40;1.00;;;;;;5090199;28;20459;-61
2022/08/24 11:19:00;;;;;;;5.40;2.77;;;34.80;1.00;;;;;;5093860;28;20460;-61
2022/08/24 11:21:41;;;;;;;7.13;3.10;;;34.10;1.00;;;;;;5089753;28;20839;-62
2022/08/24 11:24:11;;;;;;;6.83;2.93;;;33.60;1.00;;;;;;5090456;28;20456;-61
2022/08/24 11:26:54;;;;;;;5.47;2.77;;;33.30;1.00;;;;;;5089804;28;20467;-61
2022/08/24 11:29:21;;;;;;;5.57;4.10;;;33.00;1.00;;;;;;5091981;28;20463;-61
2022/08/24 11:31:51;;;;;;;6.87;4.10;;;32.70;1.00;;;;;;5093171;28;20481;-61
2022/08/24 11:34:29;;;;;;;8.13;3.93;;;32.40;1.00;;;;;;5090048;28;21226;-62
2022/08/24 11:36:57;;;;;;;6.63;3.23;;;32.10;1.00;;;;;;5090949;28;20483;-62
2022/08/24 11:39:29;;;;;;;5.63;3.77;;;31.90;1.10;;;;;;5087009;28;20459;-61
2022/08/24 11:42:00;;;;;;;10.10;3.50;;;31.70;1.40;;;;;;5088809;28;20452;-62
2022/08/24 11:44:40;;;;;;;5.17;2.83;;;31.50;1.80;;;;;;5088099;28;21030;-61
2022/08/24 11:47:31;;;;;;;6.53;3.30;;;31.40;1.70;;;;;;5085122;28;20476;-62
2022/08/24 11:50:02;;;;;;;5.30;3.47;;;31.10;1.80;;;;;;5083369;28;20493;-61
2022/08/24 11:52:41;;;;;;;5.50;3.03;;;30.80;2.40;;;;;;5092347;28;20463;-62
2022/08/24 11:55:14;;;;;;;6.40;3.70;;;30.60;2.00;;;;;;5080835;28;20479;-62
2022/08/24 11:57:48;;;;;;;5.97;2.97;;;30.40;1.90;;;;;;5085638;28;20475;-61
2022/08/24 12:00:18;;;;;;;5.17;3.30;;;30.20;1.90;;;;;;5079185;28;20822;-62
2022/08/24 12:02:54;;;;;;;5.37;3.10;;;30.00;4.00;;;;;;5076471;28;20842;-62
2022/08/24 12:05:29;;;;;;;5.37;2.90;;;29.90;3.20;;;;;;5082039;28;20630;-61
2022/08/24 12:08:05;;;;;;;6.00;2.70;;;29.80;4.20;;;;;;5081088;28;20476;-62
2022/08/24 12:10:42;;;;;;;4.60;2.70;;;29.70;3.70;;;;;;5078469;28;20448;-61
2022/08/24 12:13:18;;;;;;;4.20;2.63;;;29.60;3.40;;;;;;5086504;28;20455;-61
2022/08/24 12:15:51;;;;;;;5.10;2.87;;;29.50;3.90;;;;;;5083357;28;20483;-61
2022/08/24 12:18:26;;;;;;;4.77;2.97;;;29.40;3.90;;;;;;5084681;28;20529;-62
2022/08/24 12:20:54;;;;;;;7.70;3.33;;;29.30;3.80;;;;;;5084952;28;20882;-62
2022/08/24 12:23:27;;;;;;;5.10;2.70;;;29.20;3.90;;;;;;5085747;28;20473;-62
2022/08/24 12:26:02;;;;;;;6.10;3.17;;;29.00;4.50;;;;;;5084417;28;20456;-61
2022/08/24 12:28:34;;;;;;;5.20;2.97;;;28.90;4.80;;;;;;5079110;28;20487;-61
2022/08/24 12:31:07;;;;;;;6.70;3.20;;;28.90;4.90;;;;;;5081588;28;20469;-61
2022/08/24 12:33:38;;;;;;;5.93;3.83;;;28.80;5.00;;;;;;5086021;28;20530;-61
2022/08/24 12:36:15;;;;;;;7.30;3.90;;;28.80;6.50;;;;;;5085081;28;20566;-62
2022/08/24 12:38:45;;;;;;;5.20;3.13;;;28.80;6.30;;;;;;5085664;28;20532;-62
2022/08/24 12:41:18;;;;;;;5.50;3.17;;;28.80;6.50;;;;;;5084148;28;21150;-62
2022/08/24 12:43:49;;;;;;;5.40;3.10;;;28.70;5.60;;;;;;5086912;28;20463;-62
2022/08/24 12:46:21;;;;;;;6.30;3.57;;;28.60;6.30;;;;;;5080988;28;20458;-62
2022/08/24 12:48:55;;;;;;;5.50;3.63;;;28.50;5.50;;;;;;5078406;28;20468;-61
2022/08/24 12:51:28;;;;;;;6.60;3.60;;;28.30;6.20;;;;;;5085763;28;20461;-62
2022/08/24 12:54:10;;;;;;;5.83;3.73;;;28.20;7.60;;;;;;5078336;28;20455;-61
2022/08/24 12:57:10;;;;;;;5.03;3.60;;;28.20;8.00;;;;;;5075530;28;20968;-61
2022/08/24 12:59:40;;;;;;;5.63;3.50;;;28.10;8.10;;;;;;5080922;28;20452;-62
2022/08/24 13:02:27;;;;;;;7.97;4.47;;;28.10;8.00;;;;;;5084884;28;20483;-61
2022/08/24 13:04:59;;;;;;;6.93;3.77;;;28.00;8.80;;;;;;5079859;28;20449;-62
2022/08/24 13:07:30;;;;;;;6.20;3.40;;;28.10;9.50;;;;;;5082036;28;20479;-61
2022/08/24 13:10:13;;;;;;;5.33;3.70;;;28.20;8.70;;;;;;5088406;28;20463;-61
2022/08/24 13:13:10;;;;;;;5.77;3.57;;;28.20;8.10;;;;;;5089127;28;20460;-62
2022/08/24 13:16:01;;;;;;;6.40;3.57;;;28.10;8.60;;;;;;5089908;28;21006;-61
2022/08/24 13:19:04;;;;;;;5.37;3.90;;;28.10;8.40;;;;;;5090523;28;20472;-61
2022/08/24 13:21:40;;;;;;;7.07;4.03;;;28.20;9.40;;;;;;5081712;28;20455;-62
2022/08/24 13:24:50;;;;;;;5.87;3.67;;;28.20;8.70;;;;;;5083727;28;20463;-64
2022/08/24 13:27:49;;;;;;;7.00;3.60;;;28.20;8.70;;;;;;5076981;28;20480;-62